Terminal Aerodrome Forecast
Issued by NWS Kansas City/Pleasant Hill, MO

Home | Current Version | Previous Version | Text Only | Print | Product List | Glossary On
Versions: 1 2 3 4 5 6 7 8 9 10 11 12 13 14 15 16 17 18
870
FTUS43 KEAX 211940 AAA
TAFMCI
TAF AMD
KMCI 211940Z 2120/2218 05015G26KT P6SM BKN070
     FM212300 05014KT P6SM SCT120
     FM221500 10012KT P6SM BKN070=

USA.gov is the U.S. government's official web portal to all federal, state and local government web resources and services.